Weather at Kittsee Heliport

Public forecast

Using degrees Celsius for public forecast. Weather courtesy of forecast.io.

Closest aviation weather report (METAR) to Kittsee Heliport

Closest report is M. R. Štefánik Airport, 7.5 nm (13.8 km) NE. Retrieved 2022/01/21 19:30 UTC (6 minutes ago):

LZIB 211930Z 30014KT 9999 FEW015 00/M04 Q1024 NOSIG

Closest aviation forecast (TAF) to Kittsee Heliport

Closest forecast is M. R. Štefánik Airport, 7.5 nm (13.8 km) NE. Retrieved 2022/01/21 18:00 UTC (2 hours ago):

TAF LZIB 211700Z 2118/2218 30012KT 9999 SCT035 TEMPO 2118/2210 32015G25KT TEMPO 2203/2207 2500 -SN SCT015 OVC025 PROB40 TEMPO 2203/2207 1300 SN BKN012